Time;durP1;ratioP1;P1;durP2;ratioP2;P2;SDS_P1;SDS_P2;PMS_P1;PMS_P2;Temp;Humidity;BMP_temperature;BMP_pressure;BME280_temperature;BME280_humidity;BME280_pressure;Samples;Min_cycle;Max_cycle;Signal;HPM_P1;HPM_P2
2021/09/02 00:01:37;;;;;;;10.40;6.68;;;13.00;77.70;;;11.76;79.23;96880.47;5006129;28;20117;-65
2021/09/02 00:04:03;;;;;;;8.27;6.43;;;12.90;77.80;;;11.75;78.80;96881.47;5010444;28;20384;-64
2021/09/02 00:06:29;;;;;;;9.30;6.70;;;12.90;77.80;;;11.73;79.55;96886.09;5026821;28;20029;-66
2021/09/02 00:08:54;;;;;;;8.05;6.75;;;12.90;77.80;;;11.70;78.86;96887.28;5025732;28;20136;-65
2021/09/02 00:11:20;;;;;;;8.65;6.85;;;12.80;77.80;;;11.66;79.90;96878.09;4990610;28;20129;-66
2021/09/02 00:13:46;;;;;;;8.68;6.50;;;12.80;77.90;;;11.63;78.97;96873.97;4990801;28;20034;-65
2021/09/02 00:16:12;;;;;;;8.60;6.60;;;12.80;77.90;;;11.59;79.46;96872.69;5023209;28;20124;-66
2021/09/02 00:18:37;;;;;;;8.65;6.85;;;12.70;78.00;;;11.60;79.27;96874.34;5013652;28;20045;-65
2021/09/02 00:21:03;;;;;;;9.93;7.40;;;12.80;78.10;;;11.59;79.69;96867.44;4995255;28;20136;-66
2021/09/02 00:23:29;;;;;;;12.68;7.82;;;12.80;78.00;;;11.57;79.63;96858.06;4990103;28;20508;-65
2021/09/02 00:25:55;;;;;;;12.10;7.25;;;12.70;78.20;;;11.53;79.48;96870.75;4974598;28;20389;-64
2021/09/02 00:28:23;;;;;;;8.30;6.82;;;12.70;78.40;;;11.53;80.01;96862.84;5002998;28;20124;-65
2021/09/02 00:30:49;;;;;;;9.38;7.00;;;12.70;78.30;;;11.50;79.85;96865.84;4991515;28;20034;-66
2021/09/02 00:33:16;;;;;;;9.77;7.05;;;12.60;78.20;;;11.48;80.69;96870.47;4981371;28;20382;-64
2021/09/02 00:35:42;;;;;;;10.52;6.72;;;12.60;78.20;;;11.44;80.22;96857.81;4998759;28;20121;-66
2021/09/02 00:38:08;;;;;;;8.95;6.47;;;12.60;78.20;;;11.41;79.54;96866.91;5011985;28;20026;-65
2021/09/02 00:40:33;;;;;;;10.20;7.20;;;12.60;78.40;;;11.35;80.11;96860.53;4987720;28;20116;-64
2021/09/02 00:42:59;;;;;;;8.80;6.60;;;12.50;78.70;;;11.33;79.87;96861.69;5026831;28;20104;-65
2021/09/02 00:45:25;;;;;;;7.15;6.35;;;12.50;78.90;;;11.31;80.60;96858.38;4995343;28;20040;-66
2021/09/02 00:47:51;;;;;;;10.05;6.88;;;12.50;78.90;;;11.31;80.35;96859.22;5017686;28;20125;-66
2021/09/02 00:50:17;;;;;;;12.10;7.28;;;12.50;78.80;;;11.31;80.51;96859.22;5027212;28;20045;-66
2021/09/02 00:52:43;;;;;;;8.38;6.95;;;12.60;78.60;;;11.30;80.08;96851.47;4992485;28;20412;-65
2021/09/02 00:55:09;;;;;;;8.13;6.53;;;12.60;78.80;;;11.28;80.40;96849.03;4973900;28;20037;-64
2021/09/02 00:57:36;;;;;;;10.38;6.95;;;12.60;79.00;;;11.29;81.18;96852.47;5029016;28;20495;-63
2021/09/02 01:00:11;;;;;;;10.35;7.07;;;12.60;79.10;;;11.26;81.05;96845.75;4993342;28;20030;-65
2021/09/02 01:02:37;;;;;;;9.35;6.65;;;12.60;78.90;;;11.25;81.13;96844.09;4983568;28;20054;-65
2021/09/02 01:05:04;;;;;;;9.07;6.93;;;12.50;78.90;;;11.23;80.83;96848.75;5002489;28;20433;-65
2021/09/02 01:07:30;;;;;;;7.65;6.22;;;12.40;78.60;;;11.20;80.88;96851.72;5011999;28;20116;-66
2021/09/02 01:09:59;;;;;;;9.30;5.75;;;12.40;78.70;;;11.18;80.41;96851.09;4999286;28;20041;-64
2021/09/02 01:12:30;;;;;;;7.18;6.35;;;12.40;78.80;;;11.16;80.66;96855.72;4978064;28;20037;-66
2021/09/02 01:14:57;;;;;;;7.82;6.18;;;12.40;78.80;;;11.15;80.36;96853.25;5009494;28;20045;-66
2021/09/02 01:17:23;;;;;;;8.70;6.70;;;12.40;78.70;;;11.13;80.92;96855.25;4994669;28;20045;-66
2021/09/02 01:26:17;;;;;;;8.25;6.82;;;12.40;78.90;;;11.05;81.69;96846.38;4959449;28;20053;-68
2021/09/02 01:28:43;;;;;;;9.20;6.90;;;12.30;79.20;;;11.05;81.70;96842.91;4951130;28;20478;-68
2021/09/02 01:31:14;;;;;;;9.48;7.32;;;12.30;79.30;;;11.05;82.24;96843.72;4967278;28;20059;-68
2021/09/02 01:33:44;;;;;;;9.30;7.22;;;12.30;79.40;;;11.03;81.17;96843.09;4977721;28;20027;-66
2021/09/02 01:36:10;;;;;;;8.27;6.90;;;12.30;79.10;;;11.03;80.97;96844.91;4970665;28;20577;-66
2021/09/02 01:38:37;;;;;;;8.93;6.95;;;12.30;79.00;;;11.00;80.56;96840.81;4970923;28;20105;-66
2021/09/02 01:41:02;;;;;;;8.07;6.95;;;12.30;79.10;;;11.00;80.75;96845.25;4948283;28;20503;-66
2021/09/02 01:43:28;;;;;;;10.85;7.88;;;12.30;79.20;;;10.97;81.75;96846.44;4965031;28;20051;-67
2021/09/02 01:45:54;;;;;;;9.52;7.97;;;12.20;79.50;;;10.96;82.23;96839.53;4956786;28;20043;-66
2021/09/02 01:48:20;;;;;;;12.98;8.13;;;12.20;79.40;;;10.94;81.49;96838.88;4952190;28;20062;-66
2021/09/02 01:50:45;;;;;;;9.18;7.72;;;12.20;79.40;;;10.94;82.08;96841.50;4971631;28;20027;-66
2021/09/02 01:53:15;;;;;;;8.40;7.25;;;12.20;79.20;;;10.92;81.67;96838.22;4965328;28;20039;-66
2021/09/02 01:55:42;;;;;;;10.90;7.72;;;12.20;79.10;;;10.88;81.25;96834.31;4941521;28;20050;-65
2021/09/02 01:58:08;;;;;;;8.57;6.82;;;12.10;79.20;;;10.89;80.95;96833.31;4970980;28;20445;-66
2021/09/02 02:00:34;;;;;;;10.13;7.45;;;12.10;79.30;;;10.87;81.14;96835.31;4958991;28;20110;-66
2021/09/02 02:03:00;;;;;;;9.90;6.78;;;12.10;79.20;;;10.87;81.02;96830.03;4935727;29;20426;-66
2021/09/02 02:05:25;;;;;;;9.32;6.85;;;12.10;79.10;;;10.85;81.17;96821.47;4955969;28;20066;-66
2021/09/02 02:07:51;;;;;;;10.43;6.95;;;12.10;79.10;;;10.83;81.90;96823.47;4969203;28;20039;-65
2021/09/02 02:10:22;;;;;;;9.73;7.28;;;12.10;79.20;;;10.78;81.42;96831.06;4953831;28;20046;-66
2021/09/02 02:12:48;;;;;;;8.45;6.97;;;12.00;79.30;;;10.73;81.65;96833.38;4952235;28;20039;-67
2021/09/02 02:15:14;;;;;;;9.30;7.25;;;12.00;79.30;;;10.71;82.56;96816.97;4936004;28;20110;-67
2021/09/02 02:17:40;;;;;;;8.65;6.82;;;11.90;79.50;;;10.70;81.35;96817.94;4950929;28;20045;-66
2021/09/02 02:20:07;;;;;;;7.15;6.32;;;11.90;79.80;;;10.68;81.77;96819.94;4947512;28;20035;-66
2021/09/02 02:22:33;;;;;;;29.65;23.52;;;11.90;79.80;;;10.68;81.45;96825.19;4937898;28;20035;-68
2021/09/02 02:24:58;;;;;;;37.88;30.75;;;11.90;80.20;;;10.66;83.29;96825.38;4971465;28;20058;-66
2021/09/02 02:27:24;;;;;;;28.17;23.08;;;12.00;80.50;;;10.66;82.03;96821.94;4955470;28;20043;-66
2021/09/02 02:29:50;;;;;;;10.43;8.27;;;12.00;80.20;;;10.61;82.47;96819.78;4953674;28;20046;-66
2021/09/02 02:32:16;;;;;;;13.27;11.15;;;11.90;79.70;;;10.59;81.73;96820.94;4966639;28;20035;-66
2021/09/02 02:34:41;;;;;;;19.65;17.38;;;11.80;79.50;;;10.60;81.70;96819.94;4952283;28;20046;-66
2021/09/02 02:37:07;;;;;;;9.85;8.85;;;11.90;79.20;;;10.57;82.42;96822.94;4938476;28;20121;-66
2021/09/02 02:39:37;;;;;;;7.47;5.97;;;11.80;79.20;;;10.53;82.13;96819.00;4953795;28;20031;-66
2021/09/02 02:42:06;;;;;;;7.80;5.82;;;11.70;79.20;;;10.48;82.24;96813.44;4955068;28;20050;-66
2021/09/02 02:44:31;;;;;;;6.70;5.35;;;11.70;79.50;;;10.43;81.94;96812.16;4966034;28;20039;-66
2021/09/02 02:46:57;;;;;;;8.48;5.85;;;11.60;79.60;;;10.42;81.76;96821.03;4957344;28;20585;-66
2021/09/02 02:49:23;;;;;;;8.27;5.93;;;11.60;79.60;;;10.38;82.84;96817.06;4970218;28;20483;-66
2021/09/02 02:51:48;;;;;;;8.95;5.60;;;11.60;79.70;;;10.36;82.89;96808.53;4961230;28;20410;-66
2021/09/02 02:54:14;;;;;;;7.45;5.75;;;11.60;79.70;;;10.34;82.88;96807.91;4966043;28;20027;-66
2021/09/02 02:56:40;;;;;;;11.77;8.88;;;11.60;79.70;;;10.32;82.42;96809.88;4954111;28;20054;-66
2021/09/02 02:59:06;;;;;;;16.55;12.55;;;11.60;79.60;;;10.31;82.69;96810.88;4950959;28;20062;-66
2021/09/02 03:01:31;;;;;;;15.80;13.60;;;11.60;79.70;;;10.30;82.52;96817.13;4958098;28;20046;-66
2021/09/02 03:03:57;;;;;;;9.27;7.00;;;11.60;79.50;;;10.31;82.58;96808.25;4953782;28;20030;-66
2021/09/02 03:06:23;;;;;;;8.10;5.70;;;11.60;79.20;;;10.30;82.04;96809.22;4953279;28;20110;-66
2021/09/02 03:08:48;;;;;;;7.82;5.63;;;11.60;79.00;;;10.27;82.28;96806.13;4953832;28;20082;-66
2021/09/02 03:11:14;;;;;;;8.95;5.40;;;11.60;78.80;;;10.23;81.32;96810.09;4950287;28;20035;-66
2021/09/02 03:13:40;;;;;;;8.00;5.45;;;11.50;79.00;;;10.19;81.69;96804.31;4952208;28;20581;-66
2021/09/02 03:16:06;;;;;;;8.02;5.57;;;11.50;79.10;;;10.18;82.21;96807.09;4964313;28;20042;-66
2021/09/02 03:18:32;;;;;;;20.48;17.45;;;11.40;79.30;;;10.18;81.59;96813.16;4934675;29;20045;-66
2021/09/02 03:20:58;;;;;;;21.15;17.02;;;11.50;79.70;;;10.18;82.39;96809.72;4951990;28;20031;-67
2021/09/02 03:23:23;;;;;;;15.43;11.95;;;11.50;80.20;;;10.15;82.66;96813.50;4965713;28;20102;-67
2021/09/02 03:25:49;;;;;;;9.85;8.00;;;11.50;80.10;;;10.14;83.59;96814.50;4958653;28;20457;-66
2021/09/02 03:28:15;;;;;;;9.20;7.70;;;11.40;80.20;;;10.12;83.49;96808.59;4966770;28;20035;-66
2021/09/02 03:30:41;;;;;;;9.60;8.20;;;11.50;80.20;;;10.12;82.19;96814.66;4969612;28;20035;-67
2021/09/02 03:33:06;;;;;;;9.25;7.57;;;11.40;80.40;;;10.14;82.23;96811.88;4963751;28;20024;-67
2021/09/02 03:35:32;;;;;;;10.45;8.63;;;11.50;80.30;;;10.12;82.59;96811.22;4969008;28;20544;-66
2021/09/02 03:37:58;;;;;;;10.88;8.30;;;11.50;80.30;;;10.12;83.74;96819.09;4950342;28;20426;-66
2021/09/02 03:40:24;;;;;;;9.75;8.00;;;11.40;80.00;;;10.10;82.37;96818.44;4960739;28;20059;-66
2021/09/02 03:42:49;;;;;;;10.88;8.15;;;11.40;80.00;;;10.07;83.09;96821.44;4967648;28;20564;-66
2021/09/02 03:45:15;;;;;;;9.95;7.90;;;11.40;79.80;;;10.04;82.40;96821.75;4967109;28;20086;-66
2021/09/02 03:47:47;;;;;;;9.90;8.55;;;11.40;79.90;;;10.02;83.56;96823.75;4949843;28;20910;-66
2021/09/02 03:50:12;;;;;;;9.73;8.38;;;11.40;79.90;;;10.00;83.79;96828.34;4937503;28;20057;-66
2021/09/02 03:52:38;;;;;;;9.18;8.18;;;11.40;79.90;;;9.98;82.76;96823.25;4962412;28;20027;-67
2021/09/02 03:55:05;;;;;;;13.98;9.32;;;11.30;79.90;;;9.98;82.61;96828.50;4950496;28;20050;-68
2021/09/02 03:57:30;;;;;;;12.15;10.10;;;11.30;80.10;;;9.96;83.42;96832.31;4949609;28;20039;-66
2021/09/02 03:59:56;;;;;;;11.52;10.02;;;11.30;80.90;;;9.98;83.90;96827.69;4952958;28;20042;-66
2021/09/02 04:02:22;;;;;;;13.27;10.13;;;11.30;81.10;;;9.99;83.66;96831.97;4957599;28;20058;-66
2021/09/02 04:04:47;;;;;;;11.65;10.45;;;11.40;81.40;;;9.99;84.37;96832.78;4968860;28;20510;-66
2021/09/02 04:07:13;;;;;;;13.15;10.38;;;11.40;82.00;;;10.01;84.50;96832.63;4965519;28;20035;-66
2021/09/02 04:09:39;;;;;;;13.05;10.60;;;11.40;82.40;;;10.03;84.72;96833.25;4968883;28;20094;-66
2021/09/02 04:12:05;;;;;;;11.85;10.20;;;11.40;82.30;;;10.05;85.02;96833.91;4969226;28;20038;-66
2021/09/02 04:14:30;;;;;;;11.25;9.82;;;11.50;82.20;;;10.08;84.64;96836.19;4972525;28;20090;-66
2021/09/02 04:16:56;;;;;;;10.82;9.50;;;11.40;82.10;;;10.08;85.52;96838.84;4974648;28;20034;-66
2021/09/02 04:19:25;;;;;;;11.35;9.43;;;11.50;81.80;;;10.09;85.99;96840.47;4969280;28;20039;-66
2021/09/02 04:21:51;;;;;;;12.43;9.70;;;11.50;81.70;;;10.08;85.42;96838.84;4953004;28;20039;-66
2021/09/02 04:24:17;;;;;;;10.82;9.20;;;11.50;81.80;;;10.08;84.31;96841.47;4972242;28;20038;-66
2021/09/02 04:26:43;;;;;;;11.73;9.20;;;11.50;81.60;;;10.08;85.79;96844.09;4956267;28;20051;-66
2021/09/02 04:29:09;;;;;;;11.70;8.65;;;11.50;81.40;;;10.08;84.56;96846.72;4949011;28;20035;-67
2021/09/02 04:31:34;;;;;;;9.40;8.38;;;11.50;81.10;;;10.08;85.65;96844.09;4974063;28;21310;-66
2021/09/02 04:34:00;;;;;;;10.95;9.20;;;11.40;81.30;;;10.07;84.27;96837.19;4970462;28;20071;-66
2021/09/02 04:36:26;;;;;;;10.95;9.18;;;11.40;81.20;;;10.07;84.94;96843.28;4953199;28;20525;-66
2021/09/02 04:38:51;;;;;;;10.05;8.98;;;11.40;81.10;;;10.07;85.02;96852.97;4953875;28;20050;-66
2021/09/02 04:41:17;;;;;;;10.88;8.65;;;11.50;80.90;;;10.06;84.40;96846.06;4961782;28;20039;-66
2021/09/02 04:43:43;;;;;;;11.65;8.57;;;11.40;80.60;;;10.05;84.79;96844.44;4971495;28;20466;-66
2021/09/02 04:46:11;;;;;;;8.68;7.78;;;11.50;80.50;;;10.03;84.87;96844.59;4964068;28;20043;-66
2021/09/02 04:48:37;;;;;;;9.93;8.38;;;11.40;80.30;;;10.01;84.66;96841.31;4968248;28;20132;-66
2021/09/02 04:51:02;;;;;;;10.55;8.20;;;11.40;80.20;;;10.02;84.51;96844.78;4956415;28;20557;-66
2021/09/02 04:53:28;;;;;;;12.45;8.50;;;11.40;80.60;;;10.00;85.53;96844.13;4964826;28;20573;-66
2021/09/02 04:55:54;;;;;;;10.80;9.30;;;11.40;81.20;;;9.98;84.76;96848.72;4961224;28;20063;-66
2021/09/02 04:58:20;;;;;;;10.75;8.32;;;11.40;81.50;;;10.00;84.88;96841.50;4937362;28;20083;-66
2021/09/02 05:00:45;;;;;;;13.77;9.73;;;11.40;81.70;;;10.02;85.63;96844.78;4964066;28;20321;-66
2021/09/02 05:03:11;;;;;;;12.48;9.45;;;11.50;82.20;;;10.03;86.36;96849.03;4957218;28;20045;-66
2021/09/02 05:05:37;;;;;;;12.30;8.77;;;11.50;82.30;;;10.06;86.18;96849.50;4967938;28;20094;-66
2021/09/02 05:08:03;;;;;;;11.98;8.27;;;11.60;82.40;;;10.09;85.83;96841.28;4953271;28;20118;-66
2021/09/02 05:10:29;;;;;;;10.00;7.80;;;11.60;82.00;;;10.12;85.67;96855.91;4953464;28;20490;-66
2021/09/02 05:12:55;;;;;;;10.30;8.77;;;11.60;81.70;;;10.12;86.79;96845.41;4955879;28;20042;-66
2021/09/02 05:15:21;;;;;;;10.52;8.73;;;11.60;81.70;;;10.14;85.39;96853.94;4971310;28;20061;-66
2021/09/02 05:17:47;;;;;;;10.98;8.27;;;11.60;81.60;;;10.13;86.26;96847.03;4966185;28;20478;-66
2021/09/02 05:20:13;;;;;;;11.02;8.48;;;11.60;81.60;;;10.13;86.40;96847.84;4936862;28;20435;-66
2021/09/02 05:22:38;;;;;;;11.15;8.43;;;11.60;81.70;;;10.19;85.94;96850.81;4950478;28;20125;-66
2021/09/02 05:25:05;;;;;;;11.43;8.70;;;11.70;81.90;;;10.23;87.30;96855.59;4968095;28;20043;-66
2021/09/02 05:27:31;;;;;;;9.73;8.27;;;11.80;82.10;;;10.26;87.68;96855.25;4937364;28;20051;-67
2021/09/02 05:29:57;;;;;;;11.38;9.35;;;11.80;82.30;;;10.29;87.39;96852.28;4963334;28;20035;-66
2021/09/02 05:32:23;;;;;;;10.05;8.50;;;11.80;82.60;;;10.34;86.45;96849.16;4970775;28;20029;-66
2021/09/02 05:34:49;;;;;;;11.13;9.07;;;11.90;82.50;;;10.40;86.70;96853.72;4967746;28;20111;-66
2021/09/02 05:37:14;;;;;;;14.82;9.27;;;12.00;82.40;;;10.45;87.13;96856.69;4936012;28;20070;-67
2021/09/02 05:39:40;;;;;;;9.70;8.25;;;12.10;82.30;;;10.55;87.71;96848.59;4983135;28;20557;-66
2021/09/02 05:42:06;;;;;;;9.98;8.82;;;12.30;82.00;;;10.63;88.35;96849.38;4952313;28;20023;-67
2021/09/02 05:44:32;;;;;;;10.85;8.88;;;12.40;81.70;;;10.73;88.56;96846.56;4971733;28;20031;-66
2021/09/02 05:46:57;;;;;;;10.77;9.65;;;12.60;81.50;;;10.85;88.50;96841.72;4952406;28;20094;-66
2021/09/02 05:49:23;;;;;;;10.18;8.80;;;12.70;81.40;;;10.96;88.01;96843.97;4953387;28;20043;-67
2021/09/02 05:51:49;;;;;;;12.35;9.15;;;12.80;81.20;;;11.04;87.35;96847.38;4969854;28;20035;-66
2021/09/02 05:54:15;;;;;;;10.50;9.20;;;13.00;80.90;;;11.14;87.56;96848.97;4942351;28;20031;-66
2021/09/02 05:56:41;;;;;;;12.27;10.02;;;13.10;80.70;;;11.24;87.49;96849.56;4967100;28;20109;-66
2021/09/02 05:59:06;;;;;;;10.73;9.48;;;13.20;80.60;;;11.33;87.76;96848.53;4970867;28;20035;-66
2021/09/02 06:01:32;;;;;;;10.63;9.35;;;13.30;80.40;;;11.43;87.97;96850.91;4961289;28;20086;-66
2021/09/02 06:03:58;;;;;;;12.15;10.35;;;13.50;80.40;;;11.53;87.63;96841.75;4955561;28;20080;-66
2021/09/02 06:06:24;;;;;;;14.98;11.80;;;13.60;80.30;;;11.63;87.38;96847.63;4964729;28;20142;-67
2021/09/02 06:08:49;;;;;;;13.30;11.52;;;13.60;79.90;;;11.73;87.71;96849.19;4969592;28;20085;-66
2021/09/02 06:11:15;;;;;;;13.90;11.95;;;13.80;79.40;;;11.82;87.53;96851.63;4952158;28;20047;-66
2021/09/02 06:13:41;;;;;;;15.52;12.55;;;13.80;79.40;;;11.90;87.26;96848.09;4969593;28;20042;-67
2021/09/02 06:16:07;;;;;;;15.00;11.88;;;13.80;79.00;;;11.96;86.60;96847.38;4971222;28;20114;-68
2021/09/02 06:18:32;;;;;;;15.02;12.10;;;13.90;78.70;;;12.01;86.77;96847.69;4963891;28;20074;-67
2021/09/02 06:20:58;;;;;;;14.27;11.27;;;13.90;78.80;;;12.08;86.30;96845.13;4954488;28;20043;-66
2021/09/02 06:23:24;;;;;;;14.15;11.90;;;14.00;79.10;;;12.16;86.38;96848.50;4965552;28;20130;-69
2021/09/02 06:25:49;;;;;;;15.88;12.43;;;14.10;78.80;;;12.20;86.03;96849.75;4952126;28;20043;-68
2021/09/02 06:28:15;;;;;;;15.48;12.50;;;14.10;79.20;;;12.24;86.42;96845.78;4963956;28;20126;-69
2021/09/02 06:30:41;;;;;;;15.45;12.60;;;14.10;79.10;;;12.32;86.06;96846.69;4964522;28;20043;-69
2021/09/02 06:33:07;;;;;;;16.20;13.20;;;14.20;78.90;;;12.37;86.50;96849.59;4950940;28;20051;-68
2021/09/02 06:35:32;;;;;;;14.95;13.02;;;14.20;79.40;;;12.43;85.71;96854.97;4965957;28;20039;-66
2021/09/02 06:37:58;;;;;;;18.90;12.95;;;14.30;79.10;;;12.50;85.80;96857.72;4969255;28;20042;-69
2021/09/02 06:40:24;;;;;;;14.75;12.38;;;14.30;78.70;;;12.56;85.45;96862.25;4968576;28;20042;-69
2021/09/02 06:42:50;;;;;;;16.40;12.40;;;14.40;78.50;;;12.63;86.13;96855.25;4953774;28;20047;-69
2021/09/02 06:45:17;;;;;;;14.38;11.45;;;14.50;78.40;;;12.70;85.88;96866.72;4950941;29;20082;-69
2021/09/02 06:47:43;;;;;;;14.38;11.50;;;14.60;78.60;;;12.78;85.70;96861.34;4931932;28;20050;-68
2021/09/02 06:50:10;;;;;;;14.88;11.13;;;14.60;78.20;;;12.84;84.54;96863.22;4944922;28;20157;-69
2021/09/02 06:52:36;;;;;;;13.43;11.43;;;14.70;77.60;;;12.87;84.87;96862.84;4964772;28;20058;-69
2021/09/02 06:55:02;;;;;;;13.80;10.57;;;14.70;77.30;;;12.92;84.41;96862.31;4970253;28;20030;-69
2021/09/02 06:57:28;;;;;;;12.10;9.77;;;14.80;77.50;;;13.01;84.81;96863.03;4969239;28;20489;-69
2021/09/02 06:59:55;;;;;;;12.60;9.68;;;14.90;77.40;;;13.12;84.21;96875.75;4969152;28;20093;-69
2021/09/02 07:02:21;;;;;;;16.48;10.32;;;15.10;77.10;;;13.24;84.59;96863.72;4960342;28;20035;-69
2021/09/02 07:04:47;;;;;;;16.27;10.80;;;15.20;76.60;;;13.35;83.85;96865.91;4969777;28;20031;-69
2021/09/02 07:07:12;;;;;;;11.40;8.80;;;15.40;76.40;;;13.48;84.84;96866.03;4952400;28;20023;-69
2021/09/02 07:09:38;;;;;;;12.00;9.18;;;15.50;76.40;;;13.64;83.30;96864.97;4953587;28;20114;-69
2021/09/02 07:12:04;;;;;;;12.48;9.23;;;15.70;75.40;;;13.81;84.02;96865.53;4970063;28;20028;-69
2021/09/02 07:14:30;;;;;;;12.75;8.90;;;16.00;74.90;;;14.01;83.07;96870.97;4943471;28;20034;-69
2021/09/02 07:16:56;;;;;;;9.43;7.90;;;16.20;74.50;;;14.21;83.35;96871.13;4966356;28;20050;-69
2021/09/02 07:19:22;;;;;;;10.80;8.93;;;16.60;73.30;;;14.43;83.05;96880.66;4969774;28;20030;-68
2021/09/02 07:21:48;;;;;;;13.15;9.48;;;16.80;72.10;;;14.63;81.09;96880.78;4946318;28;20091;-68
2021/09/02 07:24:13;;;;;;;15.57;9.95;;;17.10;70.40;;;14.86;80.24;96872.56;4947022;28;20037;-68
2021/09/02 07:26:39;;;;;;;13.38;8.63;;;17.30;69.80;;;15.08;80.18;96876.72;4944998;28;20046;-69
2021/09/02 07:29:07;;;;;;;9.55;7.55;;;17.70;68.90;;;15.33;79.86;96877.84;4969798;28;20082;-67
2021/09/02 07:31:34;;;;;;;18.25;14.52;;;18.10;68.00;;;15.58;79.76;96871.97;4961901;28;20473;-68
2021/09/02 07:34:00;;;;;;;17.52;10.40;;;18.30;67.30;;;15.83;79.05;96883.66;4937114;28;20518;-68
2021/09/02 07:36:26;;;;;;;10.55;7.30;;;18.60;65.90;;;16.07;78.38;96884.09;4952861;28;20039;-68
2021/09/02 07:38:51;;;;;;;9.93;6.90;;;18.80;64.10;;;16.30;76.97;96879.22;4966289;28;20035;-68
2021/09/02 07:41:17;;;;;;;9.63;7.10;;;19.00;63.10;;;16.54;76.63;96888.38;4957338;28;20157;-69
2021/09/02 07:43:43;;;;;;;11.05;7.20;;;19.40;63.10;;;16.81;76.19;96878.53;4972427;28;20034;-67
2021/09/02 07:46:09;;;;;;;17.35;8.73;;;19.70;61.50;;;17.08;75.30;96897.84;4973427;28;20027;-68
2021/09/02 07:48:35;;;;;;;9.80;6.30;;;20.10;61.50;;;17.35;74.24;96891.41;4954138;29;20160;-68
2021/09/02 07:51:01;;;;;;;11.95;6.22;;;20.40;60.60;;;17.63;74.26;96879.56;4965671;28;20463;-67
2021/09/02 07:53:27;;;;;;;15.35;6.97;;;20.70;58.40;;;17.89;72.05;96883.97;4973010;28;20414;-68
2021/09/02 07:55:53;;;;;;;13.10;8.70;;;20.90;56.00;;;18.13;72.65;96888.50;4972547;28;20394;-65
2021/09/02 07:58:18;;;;;;;12.48;8.40;;;21.10;57.00;;;18.40;72.07;96885.59;4963086;28;20506;-67
2021/09/02 08:00:44;;;;;;;12.00;7.90;;;21.40;56.20;;;18.64;70.47;96890.09;4958482;28;20050;-68
2021/09/02 08:03:10;;;;;;;7.57;5.75;;;21.70;54.60;;;18.86;69.22;96896.66;4954960;28;20508;-68
2021/09/02 08:05:36;;;;;;;7.30;5.40;;;21.70;53.40;;;19.05;68.74;96886.00;4937327;28;20414;-68
2021/09/02 08:08:01;;;;;;;9.57;6.72;;;22.00;52.80;;;19.31;68.14;96903.53;4967582;28;20066;-69
2021/09/02 08:10:27;;;;;;;9.55;7.03;;;22.20;52.50;;;19.50;66.44;96897.94;4968621;28;20089;-67
2021/09/02 08:12:53;;;;;;;11.00;7.85;;;22.40;52.40;;;19.71;66.28;96893.19;4957358;28;20070;-67
2021/09/02 08:15:19;;;;;;;10.45;7.57;;;22.60;52.60;;;19.93;66.04;96896.97;4960409;28;20133;-66
2021/09/02 08:17:45;;;;;;;9.68;6.28;;;22.90;51.30;;;20.15;65.14;96906.06;4955981;28;20125;-67
2021/09/02 08:20:12;;;;;;;7.95;5.43;;;23.10;50.60;;;20.33;64.94;96896.31;4969194;28;20035;-67
2021/09/02 08:22:39;;;;;;;11.57;5.78;;;23.30;50.30;;;20.53;64.31;96907.50;4953400;29;20043;-67
2021/09/02 08:25:05;;;;;;;9.32;5.55;;;23.50;50.00;;;20.77;64.19;96903.78;4953637;29;20215;-67
2021/09/02 08:27:33;;;;;;;11.00;7.72;;;23.70;48.60;;;21.01;62.79;96899.22;4953263;28;20035;-67
2021/09/02 08:29:59;;;;;;;12.60;7.40;;;24.00;49.50;;;21.18;63.33;96907.34;4942064;28;20018;-67
2021/09/02 08:32:24;;;;;;;9.40;7.18;;;24.10;49.20;;;21.37;62.26;96903.50;4968646;28;20133;-67
2021/09/02 08:34:50;;;;;;;7.90;6.15;;;24.40;48.00;;;21.57;61.84;96903.06;4969798;28;20495;-67
2021/09/02 08:37:16;;;;;;;8.10;5.72;;;24.60;47.80;;;21.77;60.82;96910.69;4969764;28;20045;-67
2021/09/02 08:39:42;;;;;;;6.65;5.00;;;24.70;45.80;;;21.92;60.42;96905.56;4953036;28;20114;-67
2021/09/02 08:42:08;;;;;;;6.57;5.25;;;24.80;45.50;;;22.10;59.75;96901.91;4961312;28;20026;-67
2021/09/02 08:44:34;;;;;;;5.68;4.65;;;25.00;46.40;;;22.32;59.53;96896.63;4972767;28;20093;-67
2021/09/02 08:47:00;;;;;;;8.63;5.00;;;25.10;45.50;;;22.50;59.30;96895.59;4972738;28;20038;-67
2021/09/02 08:49:26;;;;;;;6.82;4.78;;;25.40;45.60;;;22.75;58.34;96895.94;4956522;28;20081;-67
2021/09/02 08:51:51;;;;;;;6.00;4.55;;;25.60;43.80;;;22.97;57.34;96898.69;4951525;28;20031;-66
2021/09/02 08:54:20;;;;;;;9.45;5.13;;;25.80;42.50;;;23.08;53.58;96897.75;4953245;28;20474;-67
2021/09/02 08:56:46;;;;;;;8.65;4.25;;;25.80;41.90;;;23.26;55.60;96887.78;4937263;28;20039;-67
2021/09/02 08:59:12;;;;;;;8.00;4.80;;;26.10;43.00;;;23.46;55.98;96886.16;4953481;28;20031;-67
2021/09/02 09:01:37;;;;;;;7.68;4.78;;;26.20;42.60;;;23.68;54.51;96883.47;4952464;28;20039;-67
2021/09/02 09:04:11;;;;;;;6.63;4.78;;;26.50;41.50;;;23.83;51.33;96878.25;4937380;29;20514;-67
2021/09/02 09:06:37;;;;;;;8.70;4.55;;;26.50;41.80;;;24.07;53.48;96877.94;4937031;28;20036;-67
2021/09/02 09:09:12;;;;;;;9.57;4.65;;;26.70;41.40;;;24.34;49.46;96881.41;4937317;28;20413;-67
2021/09/02 09:11:48;;;;;;;8.75;4.40;;;26.90;40.30;;;24.58;49.33;96875.66;4954278;28;20042;-67
2021/09/02 09:14:19;;;;;;;5.78;4.50;;;27.20;40.80;;;24.78;49.29;96878.50;4973039;28;20023;-68
2021/09/02 09:16:51;;;;;;;6.85;4.95;;;27.30;40.10;;;24.88;49.35;96872.34;4962797;28;20042;-69
2021/09/02 09:19:43;;;;;;;6.50;4.82;;;27.30;39.20;;;24.93;47.54;96878.59;4933269;28;20505;-70
2021/09/02 09:22:13;;;;;;;17.08;14.45;;;27.40;39.90;;;25.11;48.76;96874.63;4964852;28;20421;-69
2021/09/02 09:24:44;;;;;;;7.38;4.68;;;27.60;40.10;;;25.34;47.44;96876.09;4941345;28;20039;-68
2021/09/02 09:27:10;;;;;;;7.07;4.60;;;27.80;39.00;;;25.55;49.65;96872.38;4969960;28;20050;-69
2021/09/02 09:29:36;;;;;;;5.70;4.60;;;28.00;38.50;;;25.67;49.35;96880.28;4951930;28;20031;-68
2021/09/02 09:32:28;;;;;;;8.10;5.68;;;28.10;39.00;;;25.90;45.26;96868.19;4952116;28;20111;-68
2021/09/02 09:34:53;;;;;;;6.60;4.53;;;28.50;37.70;;;26.13;48.24;96873.06;4938621;28;20091;-69
2021/09/02 09:37:20;;;;;;;5.80;4.60;;;28.70;37.70;;;26.30;47.40;96877.38;4954283;28;20039;-69
2021/09/02 09:39:48;;;;;;;7.53;4.70;;;28.90;37.00;;;26.49;47.30;96875.78;4925548;28;20138;-67
2021/09/02 09:42:16;;;;;;;6.50;4.55;;;29.10;37.60;;;26.62;44.89;96869.00;4970884;28;20031;-68
2021/09/02 09:44:42;;;;;;;5.32;4.00;;;29.20;35.00;;;26.77;45.55;96869.81;4951407;28;20489;-67
2021/09/02 09:47:13;;;;;;;7.68;4.40;;;29.40;35.60;;;27.02;42.52;96870.84;4962701;28;20035;-67
2021/09/02 09:49:53;;;;;;;5.90;4.65;;;29.60;35.50;;;27.34;42.09;96868.53;4971118;28;20122;-67
2021/09/02 09:52:28;;;;;;;;;;;30.10;35.50;;;27.49;40.68;96866.88;4968002;28;20082;-68
2021/09/02 09:55:07;;;;;;;4.82;4.22;;;30.20;34.20;;;27.59;42.17;96866.81;4952309;28;20001;-69
2021/09/02 09:57:34;;;;;;;7.80;4.60;;;30.30;34.50;;;27.70;44.16;96860.28;4941005;28;20039;-66
2021/09/02 10:00:12;;;;;;;7.90;4.10;;;30.60;33.80;;;27.87;39.06;96866.13;4936239;28;20082;-69
2021/09/02 10:02:40;;;;;;;6.60;5.00;;;30.70;32.30;;;27.89;41.66;96866.66;4963371;28;20055;-69
2021/09/02 10:05:08;;;;;;;7.32;4.43;;;30.80;32.90;;;28.12;41.03;96854.31;4963951;28;20042;-69
2021/09/02 10:07:35;;;;;;;7.35;4.22;;;31.10;32.80;;;28.41;42.01;96851.66;4920539;28;20067;-69
2021/09/02 10:10:02;;;;;;;6.35;3.85;;;31.30;31.70;;;28.75;41.37;96856.22;4953726;28;20030;-68
2021/09/02 10:12:34;;;;;;;7.45;4.25;;;31.70;32.20;;;29.23;40.88;96852.47;4966408;28;20031;-66
2021/09/02 10:15:08;;;;;;;5.40;4.13;;;32.20;30.70;;;29.48;36.57;96855.97;4950632;28;20122;-66
2021/09/02 10:17:34;;;;;;;4.90;3.90;;;32.20;29.50;;;29.78;39.03;96858.25;4949267;28;20187;-68
2021/09/02 10:20:07;;;;;;;6.53;4.13;;;32.50;29.60;;;30.08;35.66;96856.19;4944416;28;20038;-69